EmailTwitter


Surface observations / United Kingdom / EGUB (03658)

Regions: Quebec | Canada | USA | Europe | France | UK | Elsewhere
Station
Display
Info & Location for EGUB (03658) | Help decoding METAR

Weather Conditions observed on 2018/05/26 at 16:50 UTC at BENSON RAF, UK (EGUB)

Temperature: 24.0 Celsius.

Dewpoint: 17.0 Celsius.

Relative Humidity: 65%

Humidex: 29.

Winds: Northeast at 26 km/h or 14 knots.

Mean Sea level Pressure: 101.70 kilopascals.

Horizontal visibility: 6.21 statute miles or 9.94 kilometers.

Coded METAR:

EGUB 261650Z AUTO 05014KT 9999 // NCD 24/17 Q1017=